Time;durP1;ratioP1;P1;durP2;ratioP2;P2;SDS_P1;SDS_P2;PMS_P1;PMS_P2;Temp;Humidity;BMP_temperature;BMP_pressure;BME280_temperature;BME280_humidity;BME280_pressure;Samples;Min_cycle;Max_cycle;Signal;HPM_P1;HPM_P2
2022/07/06 00:00:26;;;;;;;;;;;18.70;89.30;;;;;;4362245;32;43755;-89
2022/07/06 00:02:53;;;;;;;;;;;18.70;89.20;;;;;;4376431;32;42167;-88
2022/07/06 00:05:20;;;;;;;;;;;18.70;89.40;;;;;;4377250;32;42862;-89
2022/07/06 00:07:47;;;;;;;;;;;18.70;89.10;;;;;;4363143;32;44254;-88
2022/07/06 00:10:14;;;;;;;;;;;18.60;89.10;;;;;;4376144;32;44077;-89
2022/07/06 00:12:42;;;;;;;;;;;18.60;89.10;;;;;;4363736;32;43214;-88
2022/07/06 00:15:09;;;;;;;;;;;18.60;89.30;;;;;;4376677;32;43485;-88
2022/07/06 00:17:36;;;;;;;;;;;18.70;89.70;;;;;;4363184;32;45187;-89
2022/07/06 00:20:03;;;;;;;;;;;18.60;89.50;;;;;;4363182;32;44794;-88
2022/07/06 00:22:30;;;;;;;;;;;18.60;89.40;;;;;;4376751;32;43117;-88
2022/07/06 00:24:58;;;;;;;;;;;18.60;89.10;;;;;;4376477;32;43204;-89
2022/07/06 00:27:27;;;;;;;;;;;18.60;89.30;;;;;;4376451;32;43445;-88
2022/07/06 00:29:54;;;;;;;;;;;18.60;89.50;;;;;;4362836;32;42240;-89
2022/07/06 00:32:25;;;;;;;;;;;18.50;89.30;;;;;;4363508;32;45970;-88
2022/07/06 00:34:52;;;;;;;;;;;18.50;89.30;;;;;;4362903;32;43434;-89
2022/07/06 00:37:22;;;;;;;;;;;18.50;89.50;;;;;;4363594;32;43878;-88
2022/07/06 00:39:49;;;;;;;;;;;18.50;89.50;;;;;;4363133;32;42725;-89
2022/07/06 00:42:16;;;;;;;;;;;18.50;89.50;;;;;;4376560;32;44386;-89
2022/07/06 00:44:43;;;;;;;;;;;18.50;89.80;;;;;;4375970;32;43022;-89
2022/07/06 00:47:10;;;;;;;;;;;18.50;89.80;;;;;;4363072;32;43966;-88
2022/07/06 00:52:23;;;;;;;;;;;18.40;89.70;;;;;;4376591;32;43128;-88
2022/07/06 00:54:51;;;;;;;;;;;18.40;89.80;;;;;;4362592;32;46147;-87
2022/07/06 00:57:18;;;;;;;;;;;18.40;89.70;;;;;;4362498;32;43268;-88
2022/07/06 00:59:45;;;;;;;;;;;18.40;89.20;;;;;;4362958;32;21529;-88
2022/07/06 01:02:12;;;;;;;;;;;18.40;89.50;;;;;;4362147;32;42554;-89
2022/07/06 01:04:39;;;;;;;;;;;18.40;89.70;;;;;;4375606;32;42361;-89
2022/07/06 01:07:06;;;;;;;;;;;18.40;89.50;;;;;;4362719;32;43474;-88
2022/07/06 01:09:33;;;;;;;;;;;18.30;89.40;;;;;;4375963;32;45473;-88
2022/07/06 01:12:00;;;;;;;;;;;18.30;89.60;;;;;;4362653;32;43213;-89
2022/07/06 01:14:28;;;;;;;;;;;18.30;89.40;;;;;;4363183;32;43356;-88
2022/07/06 01:16:55;;;;;;;;;;;18.30;89.40;;;;;;4376138;32;44921;-89
2022/07/06 01:19:22;;;;;;;;;;;18.30;89.50;;;;;;4362432;32;43332;-89
2022/07/06 01:21:49;;;;;;;;;;;18.20;89.30;;;;;;4375895;32;43266;-88
2022/07/06 01:24:19;;;;;;;;;;;18.20;89.70;;;;;;4361836;32;42491;-88
2022/07/06 01:26:46;;;;;;;;;;;18.20;89.30;;;;;;4375247;32;44288;-90
2022/07/06 01:29:13;;;;;;;;;;;18.20;89.40;;;;;;4375481;32;42593;-89
2022/07/06 01:31:50;;;;;;;;;;;18.10;89.40;;;;;;4362374;32;43275;-89
2022/07/06 01:34:18;;;;;;;;;;;18.10;89.30;;;;;;4375286;32;43996;-88
2022/07/06 01:36:45;;;;;;;;;;;18.10;89.40;;;;;;4362157;32;45080;-86
2022/07/06 01:39:12;;;;;;;;;;;18.10;89.30;;;;;;4361650;32;44505;-85
2022/07/06 01:41:39;;;;;;;;;;;18.00;89.30;;;;;;4375673;32;43166;-87
2022/07/06 01:44:07;;;;;;;;;;;18.00;89.50;;;;;;4375200;32;43888;-88
2022/07/06 01:46:34;;;;;;;;;;;18.00;89.60;;;;;;4375323;32;43096;-87
2022/07/06 01:49:01;;;;;;;;;;;18.00;89.70;;;;;;4361726;32;44044;-86
2022/07/06 01:51:28;;;;;;;;;;;18.00;89.50;;;;;;4375152;32;43989;-87
2022/07/06 01:53:56;;;;;;;;;;;18.00;89.70;;;;;;4374746;32;42984;-86
2022/07/06 01:56:23;;;;;;;;;;;17.90;89.50;;;;;;4361352;32;44227;-86
2022/07/06 01:58:50;;;;;;;;;;;17.90;89.60;;;;;;4361481;32;45165;-85
2022/07/06 02:01:18;;;;;;;;;;;17.90;89.40;;;;;;4374769;32;43834;-86
2022/07/06 02:03:46;;;;;;;;;;;17.90;89.50;;;;;;4361683;32;45474;-87
2022/07/06 02:06:13;;;;;;;;;;;17.80;89.40;;;;;;4362429;32;20406;-86
2022/07/06 02:08:41;;;;;;;;;;;17.80;89.70;;;;;;4374719;32;42990;-86
2022/07/06 02:11:09;;;;;;;;;;;17.80;89.80;;;;;;4374757;32;44092;-87
2022/07/06 02:13:39;;;;;;;;;;;17.80;90.00;;;;;;4374911;32;43327;-86
2022/07/06 02:16:06;;;;;;;;;;;17.80;90.00;;;;;;4361708;32;44198;-85
2022/07/06 02:18:33;;;;;;;;;;;17.80;90.00;;;;;;4361018;32;44836;-85
2022/07/06 02:21:01;;;;;;;;;;;17.80;90.00;;;;;;4375153;32;43859;-85
2022/07/06 02:23:28;;;;;;;;;;;17.70;89.90;;;;;;4361153;32;44175;-85
2022/07/06 02:25:55;;;;;;;;;;;17.70;89.90;;;;;;4374353;32;45860;-86
2022/07/06 02:28:22;;;;;;;;;;;17.70;89.90;;;;;;4361355;32;45441;-86
2022/07/06 02:30:50;;;;;;;;;;;17.60;90.00;;;;;;4374955;32;43332;-86
2022/07/06 02:33:17;;;;;;;;;;;17.60;90.00;;;;;;4374840;32;44266;-86
2022/07/06 02:35:44;;;;;;;;;;;17.60;90.00;;;;;;4361050;32;43406;-83
2022/07/06 02:38:11;;;;;;;;;;;17.60;90.00;;;;;;4361008;32;43475;-83
2022/07/06 02:40:39;;;;;;;;;;;17.60;90.00;;;;;;4374316;32;42792;-85
2022/07/06 02:43:06;;;;;;;;;;;17.50;89.90;;;;;;4361223;32;43277;-85
2022/07/06 02:45:33;;;;;;;;;;;17.60;90.00;;;;;;4360806;32;43996;-85
2022/07/06 02:48:00;;;;;;;;;;;17.50;89.90;;;;;;4374790;32;43859;-86
2022/07/06 02:50:27;;;;;;;;;;;17.50;89.90;;;;;;4374473;32;43215;-84
2022/07/06 02:52:58;;;;;;;;;;;17.50;89.90;;;;;;4374376;32;44652;-86
2022/07/06 02:55:25;;;;;;;;;;;17.50;90.00;;;;;;4361395;32;44340;-85
2022/07/06 02:57:52;;;;;;;;;;;17.50;89.90;;;;;;4361286;32;43036;-85
2022/07/06 03:00:19;;;;;;;;;;;17.50;90.00;;;;;;4374486;32;44060;-85
2022/07/06 03:02:46;;;;;;;;;;;17.40;90.00;;;;;;4358263;33;41543;-85
2022/07/06 03:05:14;;;;;;;;;;;17.40;90.00;;;;;;4358838;33;43253;-85
2022/07/06 03:07:41;;;;;;;;;;;17.40;90.10;;;;;;4360394;32;43893;-85
2022/07/06 03:10:08;;;;;;;;;;;17.40;90.10;;;;;;4361220;32;43582;-85
2022/07/06 03:12:35;;;;;;;;;;;17.40;90.10;;;;;;4362370;32;43035;-85
2022/07/06 03:15:02;;;;;;;;;;;17.40;90.10;;;;;;4361323;32;44066;-85
2022/07/06 03:17:29;;;;;;;;;;;17.30;90.10;;;;;;4361719;32;44816;-85
2022/07/06 03:19:57;;;;;;;;;;;17.30;90.10;;;;;;4361808;32;43988;-85
2022/07/06 03:22:24;;;;;;;;;;;17.30;90.10;;;;;;4361155;32;43340;-85
2022/07/06 03:24:51;;;;;;;;;;;17.30;90.10;;;;;;4362117;32;43520;-86
2022/07/06 03:27:18;;;;;;;;;;;17.30;90.10;;;;;;4360652;32;44521;-85
2022/07/06 03:29:45;;;;;;;;;;;17.20;90.10;;;;;;4360521;32;45071;-84
2022/07/06 03:32:12;;;;;;;;;;;17.30;90.20;;;;;;4360474;32;43661;-85
2022/07/06 03:34:39;;;;;;;;;;;17.30;90.10;;;;;;4361905;32;42918;-85
2022/07/06 03:37:07;;;;;;;;;;;17.20;90.10;;;;;;4362027;32;43915;-85
2022/07/06 03:39:34;;;;;;;;;;;17.20;90.20;;;;;;4360872;32;43542;-85
2022/07/06 03:42:01;;;;;;;;;;;17.20;90.20;;;;;;4361481;32;43459;-85
2022/07/06 03:44:28;;;;;;;;;;;17.20;90.20;;;;;;4361706;32;45925;-85
2022/07/06 03:46:55;;;;;;;;;;;17.20;90.20;;;;;;4360355;32;42812;-84
2022/07/06 03:49:26;;;;;;;;;;;17.20;90.30;;;;;;4361354;32;44193;-85
2022/07/06 03:51:54;;;;;;;;;;;17.20;90.30;;;;;;4360376;32;42635;-85
2022/07/06 03:54:21;;;;;;;;;;;17.20;90.30;;;;;;4361836;32;43797;-85
2022/07/06 03:56:48;;;;;;;;;;;17.10;90.30;;;;;;4361657;32;43867;-85
2022/07/06 03:59:15;;;;;;;;;;;17.10;90.30;;;;;;4360558;32;44282;-85
2022/07/06 04:01:43;;;;;;;;;;;17.10;90.30;;;;;;4360348;32;42676;-84
2022/07/06 04:04:10;;;;;;;;;;;17.10;90.30;;;;;;4361125;32;43903;-85
2022/07/06 04:06:38;;;;;;;;;;;17.10;90.40;;;;;;4361644;32;45084;-84
2022/07/06 04:09:05;;;;;;;;;;;17.10;90.40;;;;;;4361566;32;43380;-84
2022/07/06 04:11:32;;;;;;;;;;;17.10;90.40;;;;;;4360021;32;44255;-83
2022/07/06 04:13:59;;;;;;;;;;;17.10;90.50;;;;;;4361000;32;44050;-85
2022/07/06 04:16:26;;;;;;;;;;;17.10;90.50;;;;;;4361171;32;43412;-85
2022/07/06 04:18:53;;;;;;;;;;;17.00;90.50;;;;;;4358944;32;45158;-85
2022/07/06 04:21:20;;;;;;;;;;;17.00;90.60;;;;;;4360208;32;43264;-84
2022/07/06 04:23:47;;;;;;;;;;;17.00;90.60;;;;;;4361059;32;43259;-85
2022/07/06 04:26:15;;;;;;;;;;;17.00;90.60;;;;;;4361233;32;43891;-85
2022/07/06 04:28:42;;;;;;;;;;;17.00;90.60;;;;;;4359776;32;44218;-84
2022/07/06 04:31:09;;;;;;;;;;;17.00;90.60;;;;;;4360776;32;43874;-84
2022/07/06 04:33:36;;;;;;;;;;;17.00;90.60;;;;;;4361587;32;25501;-84
2022/07/06 04:36:03;;;;;;;;;;;17.00;90.60;;;;;;4359702;32;43668;-85
2022/07/06 04:38:30;;;;;;;;;;;16.90;90.60;;;;;;4361186;32;43243;-84
2022/07/06 04:40:58;;;;;;;;;;;16.90;90.70;;;;;;4360713;32;42847;-84
2022/07/06 04:43:25;;;;;;;;;;;16.90;90.70;;;;;;4361280;32;43474;-85
2022/07/06 04:45:52;;;;;;;;;;;16.90;90.80;;;;;;4361180;32;43707;-85
2022/07/06 04:48:19;;;;;;;;;;;16.90;90.90;;;;;;4360918;32;43388;-84
2022/07/06 04:50:47;;;;;;;;;;;16.90;90.90;;;;;;4359837;32;43820;-85
2022/07/06 04:53:14;;;;;;;;;;;16.90;91.00;;;;;;4360809;32;43689;-84
2022/07/06 04:55:41;;;;;;;;;;;16.90;91.00;;;;;;4359262;32;44005;-84
2022/07/06 04:58:09;;;;;;;;;;;16.90;91.10;;;;;;4360670;32;44079;-85
2022/07/06 05:00:36;;;;;;;;;;;16.90;91.10;;;;;;4359534;32;43543;-85
2022/07/06 05:03:03;;;;;;;;;;;16.90;91.10;;;;;;4372040;32;43847;-85
2022/07/06 05:05:33;;;;;;;;;;;16.90;91.30;;;;;;4362361;32;43475;-85
2022/07/06 05:08:00;;;;;;;;;;;16.90;91.40;;;;;;4375615;32;43505;-85
2022/07/06 05:10:27;;;;;;;;;;;16.90;91.50;;;;;;4375942;32;43786;-84
2022/07/06 05:12:55;;;;;;;;;;;16.90;91.70;;;;;;4375125;32;44359;-85
2022/07/06 05:15:23;;;;;;;;;;;16.90;91.70;;;;;;4375119;32;43558;-85
2022/07/06 05:17:52;;;;;;;;;;;16.90;91.70;;;;;;4362363;32;44912;-84
2022/07/06 05:20:20;;;;;;;;;;;16.90;91.90;;;;;;4361748;32;38182;-85
2022/07/06 05:22:47;;;;;;;;;;;16.90;92.20;;;;;;4374979;32;43831;-84
2022/07/06 05:25:14;;;;;;;;;;;16.90;92.00;;;;;;4374997;32;43853;-83
2022/07/06 05:27:41;;;;;;;;;;;16.90;92.10;;;;;;4375149;32;43526;-85
2022/07/06 05:30:08;;;;;;;;;;;16.90;92.20;;;;;;4361433;32;43697;-84
2022/07/06 05:32:36;;;;;;;;;;;16.90;92.50;;;;;;4374985;32;44180;-83
2022/07/06 05:35:03;;;;;;;;;;;16.90;92.60;;;;;;4361983;32;44208;-83
2022/07/06 05:37:52;;;;;;;;;;;16.90;92.90;;;;;;4375502;32;45571;-84
2022/07/06 05:40:22;;;;;;;;;;;16.90;92.90;;;;;;4361629;32;42612;-85
2022/07/06 05:42:50;;;;;;;;;;;16.90;92.80;;;;;;4375231;32;45350;-85
2022/07/06 05:45:18;;;;;;;;;;;16.90;92.90;;;;;;4374579;32;44793;-84
2022/07/06 05:50:33;;;;;;;;;;;17.00;92.90;;;;;;4374792;32;42666;-84
2022/07/06 05:53:01;;;;;;;;;;;17.00;92.80;;;;;;4361378;32;45255;-84
2022/07/06 05:55:38;;;;;;;;;;;16.90;92.80;;;;;;4362546;32;40205;-84
2022/07/06 05:58:06;;;;;;;;;;;17.00;92.70;;;;;;4375082;32;43604;-84
2022/07/06 06:00:33;;;;;;;;;;;17.00;92.80;;;;;;4374667;32;42516;-84
2022/07/06 06:03:00;;;;;;;;;;;17.00;92.90;;;;;;4374629;32;44911;-82
2022/07/06 06:05:28;;;;;;;;;;;17.00;92.80;;;;;;4374780;32;43260;-83
2022/07/06 06:07:55;;;;;;;;;;;17.00;92.70;;;;;;4375633;32;19993;-83
2022/07/06 06:10:24;;;;;;;;;;;17.00;92.70;;;;;;4375067;32;44219;-83
2022/07/06 06:12:51;;;;;;;;;;;17.00;92.60;;;;;;4361009;32;42533;-85
2022/07/06 06:15:19;;;;;;;;;;;17.00;92.60;;;;;;4361263;32;43391;-84
2022/07/06 06:17:46;;;;;;;;;;;17.00;92.80;;;;;;4374833;32;43160;-84
2022/07/06 06:20:14;;;;;;;;;;;17.00;92.90;;;;;;4374828;32;45095;-84
2022/07/06 06:22:48;;;;;;;;;;;17.00;92.80;;;;;;4374736;32;43361;-85
2022/07/06 06:25:16;;;;;;;;;;;17.00;92.90;;;;;;4374958;32;43291;-84
2022/07/06 06:27:43;;;;;;;;;;;17.00;93.00;;;;;;4361179;32;43901;-84
2022/07/06 06:30:11;;;;;;;;;;;17.00;93.10;;;;;;4361506;32;43597;-84
2022/07/06 06:32:38;;;;;;;;;;;17.00;93.10;;;;;;4361207;32;44208;-83
2022/07/06 06:35:06;;;;;;;;;;;17.00;93.20;;;;;;4360951;32;42678;-83
2022/07/06 06:37:38;;;;;;;;;;;17.00;93.10;;;;;;4362155;32;43177;-84
2022/07/06 06:40:08;;;;;;;;;;;17.00;93.20;;;;;;4374695;32;43995;-83
2022/07/06 06:42:36;;;;;;;;;;;17.10;93.20;;;;;;4361949;32;43952;-84
2022/07/06 06:45:04;;;;;;;;;;;17.10;93.20;;;;;;4364063;32;42688;-84
2022/07/06 06:47:31;;;;;;;;;;;17.10;93.10;;;;;;4377533;32;43561;-83
2022/07/06 06:49:58;;;;;;;;;;;17.10;93.10;;;;;;4377131;32;44175;-84
2022/07/06 06:52:25;;;;;;;;;;;17.10;93.20;;;;;;4377602;32;45839;-83
2022/07/06 06:55:08;;;;;;;;;;;17.10;93.30;;;;;;4377693;32;45157;-83
2022/07/06 06:57:35;;;;;;;;;;;17.10;93.40;;;;;;4363670;32;42738;-83
2022/07/06 07:00:04;;;;;;;;;;;17.10;93.60;;;;;;4377355;32;43080;-84
2022/07/06 07:02:31;;;;;;;;;;;17.10;93.30;;;;;;4364775;32;20506;-84
2022/07/06 07:04:59;;;;;;;;;;;17.10;93.40;;;;;;4363761;32;44730;-84
2022/07/06 07:07:26;;;;;;;;;;;17.10;93.50;;;;;;4363660;32;43408;-83
2022/07/06 07:09:53;;;;;;;;;;;17.10;93.40;;;;;;4363540;32;45787;-85
2022/07/06 07:12:20;;;;;;;;;;;17.10;93.20;;;;;;4376785;32;45661;-85
2022/07/06 07:14:47;;;;;;;;;;;17.10;93.00;;;;;;4376833;32;44120;-84
2022/07/06 07:17:14;;;;;;;;;;;17.10;93.00;;;;;;4363806;32;43029;-83
2022/07/06 07:19:42;;;;;;;;;;;17.10;93.10;;;;;;4377249;32;43325;-82
2022/07/06 07:22:09;;;;;;;;;;;17.20;93.00;;;;;;4363626;32;43486;-83
2022/07/06 07:24:36;;;;;;;;;;;17.10;93.00;;;;;;4377231;32;44162;-87
2022/07/06 07:27:05;;;;;;;;;;;17.10;93.00;;;;;;4376836;32;44218;-82
2022/07/06 07:29:32;;;;;;;;;;;17.20;93.00;;;;;;4363417;32;45615;-81
2022/07/06 07:31:59;;;;;;;;;;;17.10;93.00;;;;;;4363644;32;43498;-83
2022/07/06 07:34:26;;;;;;;;;;;17.20;92.90;;;;;;4363497;32;44222;-82
2022/07/06 07:36:53;;;;;;;;;;;17.20;92.90;;;;;;4376931;32;43474;-83
2022/07/06 07:39:20;;;;;;;;;;;17.20;92.90;;;;;;4363226;32;42637;-83
2022/07/06 07:41:50;;;;;;;;;;;17.20;92.90;;;;;;4376471;32;44221;-82
2022/07/06 07:44:17;;;;;;;;;;;17.20;93.30;;;;;;4376883;32;43833;-81
2022/07/06 07:46:44;;;;;;;;;;;17.20;92.90;;;;;;4376680;32;42692;-82
2022/07/06 07:49:11;;;;;;;;;;;17.20;92.90;;;;;;4376335;32;44315;-82
2022/07/06 07:51:49;;;;;;;;;;;17.20;92.90;;;;;;4376580;32;44094;-82
2022/07/06 07:54:17;;;;;;;;;;;17.20;92.80;;;;;;4376308;32;43889;-82
2022/07/06 07:56:44;;;;;;;;;;;17.20;92.80;;;;;;4376208;32;43922;-87
2022/07/06 07:59:11;;;;;;;;;;;17.20;92.60;;;;;;4363292;32;43184;-86
2022/07/06 08:01:38;;;;;;;;;;;17.30;92.60;;;;;;4376367;32;44116;-84
2022/07/06 08:04:05;;;;;;;;;;;17.20;92.40;;;;;;4362686;32;42467;-80
2022/07/06 08:06:33;;;;;;;;;;;17.30;92.40;;;;;;4363162;32;43570;-84
2022/07/06 08:09:00;;;;;;;;;;;17.20;92.20;;;;;;4362855;32;43507;-82
2022/07/06 08:11:27;;;;;;;;;;;17.20;92.40;;;;;;4362796;32;43209;-82
2022/07/06 08:13:54;;;;;;;;;;;17.20;92.40;;;;;;4362542;32;42559;-81
2022/07/06 08:16:21;;;;;;;;;;;17.30;92.20;;;;;;4363139;32;44033;-82
2022/07/06 08:18:49;;;;;;;;;;;17.30;92.00;;;;;;4362594;32;43298;-81
2022/07/06 08:21:16;;;;;;;;;;;17.30;91.80;;;;;;4362784;32;42961;-85
2022/07/06 08:23:53;;;;;;;;;;;17.30;91.80;;;;;;4363619;32;42565;-83
2022/07/06 08:26:20;;;;;;;;;;;17.30;91.30;;;;;;4376187;32;43115;-81
2022/07/06 08:28:47;;;;;;;;;;;17.30;91.10;;;;;;4376236;32;44063;-81
2022/07/06 08:31:14;;;;;;;;;;;17.30;91.40;;;;;;4375888;32;44023;-80
2022/07/06 08:34:02;;;;;;;;;;;17.30;91.50;;;;;;4376149;32;42989;-82
2022/07/06 08:36:29;;;;;;;;;;;17.30;91.30;;;;;;4362404;32;43185;-82
2022/07/06 08:38:56;;;;;;;;;;;17.30;91.30;;;;;;4376151;32;43553;-82
2022/07/06 08:41:23;;;;;;;;;;;17.30;91.50;;;;;;4375636;32;43840;-82
2022/07/06 08:43:52;;;;;;;;;;;17.30;91.40;;;;;;4362491;32;44378;-83
2022/07/06 08:46:20;;;;;;;;;;;17.40;91.20;;;;;;4362289;32;45075;-84
2022/07/06 08:48:48;;;;;;;;;;;17.40;91.20;;;;;;4375813;32;43189;-86
2022/07/06 08:51:15;;;;;;;;;;;17.40;91.40;;;;;;4362107;32;44085;-83
2022/07/06 08:53:43;;;;;;;;;;;17.40;91.30;;;;;;4375503;32;42520;-83
2022/07/06 08:56:11;;;;;;;;;;;17.40;91.40;;;;;;4362026;32;42573;-84
2022/07/06 08:58:41;;;;;;;;;;;17.40;91.60;;;;;;4375481;32;42738;-81
2022/07/06 09:01:09;;;;;;;;;;;17.40;91.50;;;;;;4362272;32;43874;-82
2022/07/06 09:03:36;;;;;;;;;;;17.40;91.50;;;;;;4361940;32;43961;-82
2022/07/06 09:06:04;;;;;;;;;;;17.40;91.50;;;;;;4375093;32;43733;-83
2022/07/06 09:08:32;;;;;;;;;;;17.40;91.50;;;;;;4375601;32;44529;-84
2022/07/06 09:10:59;;;;;;;;;;;17.40;91.40;;;;;;4361785;32;44697;-85
2022/07/06 09:13:26;;;;;;;;;;;17.50;91.50;;;;;;4362081;32;43940;-85
2022/07/06 09:15:53;;;;;;;;;;;17.50;91.30;;;;;;4361698;32;43338;-84
2022/07/06 09:18:43;;;;;;;;;;;17.50;91.30;;;;;;4375637;32;44640;-82
2022/07/06 09:21:11;;;;;;;;;;;17.50;91.20;;;;;;4375030;32;43723;-83
2022/07/06 09:23:38;;;;;;;;;;;17.50;91.40;;;;;;4361819;32;44009;-84
2022/07/06 09:26:05;;;;;;;;;;;17.50;91.40;;;;;;4375452;32;44264;-83
2022/07/06 09:28:42;;;;;;;;;;;17.40;91.40;;;;;;4374842;32;43679;-81
2022/07/06 09:31:10;;;;;;;;;;;17.50;91.20;;;;;;4361523;32;43236;-85
2022/07/06 09:33:56;;;;;;;;;;;17.50;91.10;;;;;;4362569;32;43271;-84
2022/07/06 09:36:37;;;;;;;;;;;17.50;90.80;;;;;;4361656;32;42716;-83
2022/07/06 09:39:24;;;;;;;;;;;17.50;91.10;;;;;;4375240;32;42979;-82
2022/07/06 09:41:56;;;;;;;;;;;17.50;91.10;;;;;;4375238;32;43848;-84
2022/07/06 09:44:24;;;;;;;;;;;17.50;91.10;;;;;;4361874;32;44195;-81
2022/07/06 09:46:52;;;;;;;;;;;17.50;91.10;;;;;;4362155;32;44203;-88
2022/07/06 09:49:20;;;;;;;;;;;17.50;91.00;;;;;;4375060;32;42629;-92
2022/07/06 09:51:49;;;;;;;;;;;17.50;90.80;;;;;;4375611;32;45017;-87
2022/07/06 09:54:16;;;;;;;;;;;17.50;91.20;;;;;;4375227;32;43251;-85
2022/07/06 09:56:47;;;;;;;;;;;17.50;90.90;;;;;;4375434;32;43501;-84
2022/07/06 09:59:15;;;;;;;;;;;17.50;91.00;;;;;;4375335;32;45149;-89
2022/07/06 10:01:43;;;;;;;;;;;17.50;91.10;;;;;;4375034;32;42697;-89
2022/07/06 10:04:12;;;;;;;;;;;17.60;91.10;;;;;;4361802;32;43934;-83
2022/07/06 10:06:40;;;;;;;;;;;17.60;90.80;;;;;;4361527;32;42810;-81
2022/07/06 10:09:08;;;;;;;;;;;17.60;91.00;;;;;;4374916;32;44279;-82
2022/07/06 10:11:44;;;;;;;;;;;17.60;90.80;;;;;;4375177;32;43920;-81
2022/07/06 10:14:13;;;;;;;;;;;17.60;90.90;;;;;;4361792;32;43892;-81
2022/07/06 10:16:40;;;;;;;;;;;17.60;90.80;;;;;;4376152;32;44072;-81
2022/07/06 10:19:08;;;;;;;;;;;17.60;91.10;;;;;;4378070;32;43263;-82
2022/07/06 10:21:36;;;;;;;;;;;17.60;91.20;;;;;;4377679;32;44621;-82
2022/07/06 10:24:07;;;;;;;;;;;17.60;91.20;;;;;;4377465;32;43146;-82
2022/07/06 10:26:35;;;;;;;;;;;17.60;91.20;;;;;;4377620;32;44048;-80
2022/07/06 10:29:03;;;;;;;;;;;17.60;91.10;;;;;;4364545;32;44129;-82
2022/07/06 10:31:31;;;;;;;;;;;17.60;91.00;;;;;;4377960;32;44971;-81
2022/07/06 10:33:59;;;;;;;;;;;17.70;91.10;;;;;;4364472;32;42667;-83
2022/07/06 10:36:27;;;;;;;;;;;17.60;91.10;;;;;;4377520;32;43470;-83
2022/07/06 10:38:55;;;;;;;;;;;17.70;91.20;;;;;;4377464;32;45122;-82
2022/07/06 10:41:31;;;;;;;;;;;17.70;91.30;;;;;;4377510;32;44869;-81
2022/07/06 10:44:14;;;;;;;;;;;17.70;91.30;;;;;;4364412;32;44225;-83
2022/07/06 10:46:41;;;;;;;;;;;17.70;91.30;;;;;;4363823;32;44175;-83
2022/07/06 10:49:15;;;;;;;;;;;17.70;91.20;;;;;;4377519;32;42818;-84
2022/07/06 10:52:02;;;;;;;;;;;17.70;91.10;;;;;;4366608;32;46216;-83
2022/07/06 10:54:38;;;;;;;;;;;17.70;91.20;;;;;;4364072;32;44620;-82
2022/07/06 10:57:09;;;;;;;;;;;17.70;91.30;;;;;;4377613;32;43642;-81
2022/07/06 10:59:37;;;;;;;;;;;17.80;91.10;;;;;;4377243;32;42654;-82
2022/07/06 11:02:19;;;;;;;;;;;17.70;91.20;;;;;;4376838;32;43088;-80
2022/07/06 11:04:47;;;;;;;;;;;17.70;91.10;;;;;;4364266;32;44164;-81
2022/07/06 11:07:18;;;;;;;;;;;17.70;91.00;;;;;;4377384;32;44087;-82
2022/07/06 11:09:56;;;;;;;;;;;17.80;91.20;;;;;;4377417;32;43278;-82
2022/07/06 11:12:23;;;;;;;;;;;17.80;91.10;;;;;;4377090;32;42274;-82
2022/07/06 11:14:51;;;;;;;;;;;17.80;91.20;;;;;;4363906;32;44795;-81
2022/07/06 11:17:18;;;;;;;;;;;17.80;90.90;;;;;;4363993;32;44241;-81
2022/07/06 11:19:58;;;;;;;;;;;17.80;90.90;;;;;;4376751;32;43845;-80
2022/07/06 11:22:26;;;;;;;;;;;17.80;91.00;;;;;;4376832;32;43363;-81
2022/07/06 11:24:55;;;;;;;;;;;17.80;91.00;;;;;;4376810;32;43652;-81
2022/07/06 11:27:23;;;;;;;;;;;17.80;90.90;;;;;;4376482;32;45898;-81
2022/07/06 11:29:50;;;;;;;;;;;17.80;90.80;;;;;;4376438;32;43193;-80
2022/07/06 11:32:22;;;;;;;;;;;17.80;90.90;;;;;;4377108;32;44245;-80
2022/07/06 11:34:49;;;;;;;;;;;17.80;90.90;;;;;;4375901;32;44199;-82
2022/07/06 11:37:18;;;;;;;;;;;17.80;91.00;;;;;;4363655;32;43856;-80
2022/07/06 11:39:46;;;;;;;;;;;17.90;91.00;;;;;;4362894;32;44709;-80
2022/07/06 11:42:15;;;;;;;;;;;17.80;91.00;;;;;;4364102;32;20068;-81
2022/07/06 11:44:42;;;;;;;;;;;17.80;91.00;;;;;;4363403;32;43953;-81
2022/07/06 11:47:10;;;;;;;;;;;17.90;91.10;;;;;;4376791;32;43894;-80
2022/07/06 11:49:38;;;;;;;;;;;17.90;90.80;;;;;;4376319;32;42643;-80
2022/07/06 11:52:09;;;;;;;;;;;17.90;90.80;;;;;;4376877;32;44238;-81
2022/07/06 11:54:36;;;;;;;;;;;17.90;90.80;;;;;;4363564;32;44090;-81
2022/07/06 11:57:03;;;;;;;;;;;17.90;90.80;;;;;;4363604;32;43846;-80
2022/07/06 11:59:35;;;;;;;;;;;17.90;90.80;;;;;;4363059;32;43917;-81
2022/07/06 12:02:13;;;;;;;;;;;17.90;90.60;;;;;;4360020;32;43114;-80
2022/07/06 12:04:42;;;;;;;;;;;18.00;90.70;;;;;;4360596;32;44644;-80
2022/07/06 12:07:16;;;;;;;;;;;18.00;90.80;;;;;;4361671;32;43579;-78
2022/07/06 12:09:44;;;;;;;;;;;18.00;90.90;;;;;;4361807;32;43207;-79
2022/07/06 12:12:12;;;;;;;;;;;18.00;90.90;;;;;;4360591;32;43553;-80
2022/07/06 12:14:40;;;;;;;;;;;18.00;90.70;;;;;;4360529;32;43245;-80
2022/07/06 12:17:11;;;;;;;;;;;18.00;90.90;;;;;;4361496;32;43453;-80
2022/07/06 12:19:39;;;;;;;;;;;18.00;90.60;;;;;;4360454;32;42733;-80
2022/07/06 12:22:08;;;;;;;;;;;18.00;90.80;;;;;;4360617;32;43903;-80
2022/07/06 12:24:37;;;;;;;;;;;18.00;90.80;;;;;;4360281;32;42864;-80
2022/07/06 12:27:15;;;;;;;;;;;18.00;90.80;;;;;;4359674;32;44954;-79
2022/07/06 12:29:42;;;;;;;;;;;18.10;90.80;;;;;;4361299;32;43860;-79
2022/07/06 12:32:22;;;;;;;;;;;18.10;90.80;;;;;;4359988;32;44911;-80
2022/07/06 12:35:08;;;;;;;;;;;18.10;90.60;;;;;;4361472;32;43255;-79
2022/07/06 12:37:36;;;;;;;;;;;18.10;90.80;;;;;;4361142;32;42431;-83
2022/07/06 12:40:13;;;;;;;;;;;18.10;90.70;;;;;;4358963;32;42479;-78
2022/07/06 12:42:47;;;;;;;;;;;18.10;90.90;;;;;;4359727;32;42150;-80
2022/07/06 12:45:14;;;;;;;;;;;18.10;90.80;;;;;;4359967;32;42504;-80
2022/07/06 12:47:42;;;;;;;;;;;18.10;90.70;;;;;;4359940;32;43246;-78
2022/07/06 12:50:11;;;;;;;;;;;18.20;90.80;;;;;;4361105;32;43763;-79
2022/07/06 12:52:38;;;;;;;;;;;18.10;90.60;;;;;;4359661;32;43268;-79
2022/07/06 12:55:07;;;;;;;;;;;18.20;90.70;;;;;;4360735;32;43060;-81
2022/07/06 12:57:43;;;;;;;;;;;18.20;90.90;;;;;;4359732;32;43845;-79
2022/07/06 13:00:10;;;;;;;;;;;18.20;90.90;;;;;;4360894;32;42105;-78
2022/07/06 13:02:38;;;;;;;;;;;18.20;90.90;;;;;;4369423;32;44220;-81
2022/07/06 13:05:28;;;;;;;;;;;18.20;91.00;;;;;;4364497;32;44685;-78
2022/07/06 13:07:57;;;;;;;;;;;18.30;90.90;;;;;;4362241;32;45064;-77
2022/07/06 13:10:24;;;;;;;;;;;18.30;90.90;;;;;;4375653;32;43467;-79
2022/07/06 13:12:51;;;;;;;;;;;18.30;91.00;;;;;;4375099;32;43945;-78
2022/07/06 13:15:19;;;;;;;;;;;18.30;91.00;;;;;;4375567;32;43928;-80
2022/07/06 13:17:46;;;;;;;;;;;18.30;91.10;;;;;;4361744;32;44619;-81
2022/07/06 13:20:13;;;;;;;;;;;18.30;91.10;;;;;;4361696;32;43338;-80
2022/07/06 13:22:40;;;;;;;;;;;18.30;91.00;;;;;;4375559;32;43857;-81
2022/07/06 13:25:08;;;;;;;;;;;18.30;91.00;;;;;;4362179;32;43032;-78
2022/07/06 13:27:35;;;;;;;;;;;18.40;90.90;;;;;;4361495;32;44043;-80
2022/07/06 13:30:02;;;;;;;;;;;18.40;91.00;;;;;;4374992;32;42182;-79
2022/07/06 13:32:29;;;;;;;;;;;18.40;91.00;;;;;;4374899;32;43490;-78
2022/07/06 13:34:56;;;;;;;;;;;18.40;90.80;;;;;;4375079;32;44378;-76
2022/07/06 13:37:23;;;;;;;;;;;18.40;91.00;;;;;;4361958;32;43859;-77
2022/07/06 13:39:50;;;;;;;;;;;18.40;91.00;;;;;;4375261;32;43478;-77
2022/07/06 13:42:17;;;;;;;;;;;18.50;90.90;;;;;;4361768;32;43861;-77
2022/07/06 13:44:45;;;;;;;;;;;18.50;91.10;;;;;;4374923;32;43459;-77
2022/07/06 13:47:12;;;;;;;;;;;18.50;91.20;;;;;;4374994;32;42668;-77
2022/07/06 13:49:39;;;;;;;;;;;18.50;91.10;;;;;;4374932;32;42568;-77
2022/07/06 13:52:07;;;;;;;;;;;18.50;91.10;;;;;;4374519;32;43751;-77
2022/07/06 13:54:34;;;;;;;;;;;18.60;91.00;;;;;;4361237;32;42658;-77
2022/07/06 13:57:02;;;;;;;;;;;18.50;91.20;;;;;;4374642;32;42921;-76
2022/07/06 13:59:29;;;;;;;;;;;18.60;91.20;;;;;;4361347;32;42603;-76
2022/07/06 14:01:57;;;;;;;;;;;18.60;91.10;;;;;;4374417;32;43200;-76
2022/07/06 14:04:24;;;;;;;;;;;18.60;91.30;;;;;;4373971;32;43837;-77
2022/07/06 14:06:51;;;;;;;;;;;18.60;91.10;;;;;;4361526;32;43051;-77
2022/07/06 14:09:18;;;;;;;;;;;18.60;91.20;;;;;;4374974;32;43705;-77
2022/07/06 14:11:45;;;;;;;;;;;18.70;91.30;;;;;;4375186;32;43203;-77
2022/07/06 14:14:12;;;;;;;;;;;18.70;91.40;;;;;;4361141;32;42617;-78
2022/07/06 14:16:40;;;;;;;;;;;18.70;90.80;;;;;;4361614;32;43923;-77
2022/07/06 14:19:08;;;;;;;;;;;18.70;90.80;;;;;;4374545;32;42779;-78
2022/07/06 14:21:35;;;;;;;;;;;18.70;90.90;;;;;;4374523;32;45190;-77
2022/07/06 14:24:02;;;;;;;;;;;18.80;90.80;;;;;;4374862;32;42239;-79
2022/07/06 14:26:29;;;;;;;;;;;18.80;90.90;;;;;;4374358;32;44113;-77
2022/07/06 14:28:56;;;;;;;;;;;18.80;90.80;;;;;;4374800;32;44021;-77